• Join FlightAware (Why Join?)
  • Login
  • US Flag 
08:02PM EDT


 

Airport Tracker/Info


-or-


 

Live Flight TrackerFlight Track Log ✈ UAL4457 ✈ 13-Apr-2013 ✈ KIAH - KLEX

Flight Track Log - Related Links

Times and Time Zones

All times are in EDT time to prevent confusion due to time zone crossing. See the UAL4457 flight status page for this flight to view local times or setup timezone preferences in your user account.

Time Position Orientation Groundspeed Altitude Reporting Facility
EDT Latitude Longitude Course Direction KTS MPH feet Rate Location/Type
02:57PM 29.9767 -95.3008 35° Northeast 144 166 900  Level Houston Center
02:58PM 30.0092 -95.2733 36° Northeast 234 269 2,400 1,980 Climbing Houston Center
02:59PM 30.0736 -95.2472 19° North 241 277 4,800 2,460 Climbing Houston Center
03:00PM 30.2998 -95.0787 32° Northeast  Level FlightAware Approximate
03:00PM 30.1400 -95.2014 31° Northeast 274 315 7,600  Level Houston Center
03:01PM 30.4061 -94.9939 41° Northeast  Level FlightAware Approximate
03:01PM 30.2197 -95.1411 33° Northeast 285 328 10,200  Level Houston Center
03:02PM 30.5114 -94.9142 35° Northeast  Level FlightAware Approximate
03:02PM 30.3003 -95.0811 33° Northeast 341 392 11,100  Level Houston Center
03:03PM 30.3869 -95.0164 33° Northeast 365 420 12,700 1,500 Climbing Houston Center
03:04PM 30.4744 -94.9514 33° Northeast 382 440 14,200 1,500 Climbing Houston Center
03:05PM 30.5664 -94.8825 33° Northeast 391 450 15,900 1,560 Climbing Houston Center
03:06PM 30.6775 -94.7969 34° Northeast 400 460 17,400 1,380 Climbing Houston Center
03:07PM 30.7711 -94.7242 34° Northeast 404 465 18,800 1,320 Climbing Houston Center
03:08PM 30.8675 -94.6500 33° Northeast 415 478 20,200 1,380 Climbing Houston Center
03:09PM 30.9622 -94.5767 34° Northeast 410 472 21,600 1,440 Climbing Fort Worth Center
03:10PM 31.0628 -94.4961 34° Northeast 415 478 23,000 1,260 Climbing Fort Worth Center
03:11PM 31.1511 -94.4303 33° Northeast 420 483 24,200 1,380 Climbing Fort Worth Center
03:12PM 31.2678 -94.3389 34° Northeast 438 504 25,800 1,380 Climbing Fort Worth Center
03:13PM 31.3722 -94.2578 34° Northeast 438 504 27,000 600 Climbing Fort Worth Center
03:14PM 31.4786 -94.1736 34° Northeast 451 519 27,000  Level Fort Worth Center
03:15PM 31.5933 -94.0867 33° Northeast 464 534 27,000 480 Level Fort Worth Center
03:16PM 31.6914 -94.0075 34° Northeast 475 547 28,000 1,500 Climbing Fort Worth Center
03:17PM 31.8017 -93.9228 33° Northeast 475 547 30,000 1,500 Climbing Fort Worth Center
03:18PM 31.9203 -93.8303 33° Northeast 470 541 31,000 480 Climbing Fort Worth Center
03:19PM 32.0344 -93.7375 35° Northeast 482 555 31,000 240 Level Fort Worth Center
03:20PM 32.1386 -93.6547 34° Northeast 487 560 31,500 780 Climbing Fort Worth Center
03:21PM 32.2564 -93.5517 36° Northeast 503 579 32,600 1,020 Climbing Fort Worth Center
03:22PM 32.3747 -93.4606 33° Northeast 503 579 33,600 960 Climbing Fort Worth Center
03:23PM 32.4906 -93.3644 35° Northeast 503 579 34,600 660 Climbing Fort Worth Center
03:24PM 32.6086 -93.2703 34° Northeast 503 579 35,000 180 Climbing Fort Worth Center
03:25PM 32.7286 -93.1733 34° Northeast 503 579 35,000  Level Fort Worth Center
03:26PM 32.8503 -93.0736 35° Northeast 514 592 35,000  Level Fort Worth Center
03:27PM 32.9722 -92.9764 34° Northeast 520 598 35,000  Level Fort Worth Center
03:28PM 33.0919 -92.8786 34° Northeast 520 598 35,000  Level Fort Worth Center
03:29PM 33.2094 -92.7833 34° Northeast 514 592 35,000  Level Fort Worth Center
03:31PM 33.3539 -92.5706 51° Northeast 515 593 35,000  Level Memphis Center
03:32PM 33.4294 -92.4233 58° Northeast 515 593 35,000  Level Memphis Center
03:33PM 33.5047 -92.2756 59° Northeast 515 593 35,000  Level Memphis Center
03:34PM 33.5800 -92.1275 59° Northeast 515 593 35,000  Level Memphis Center
03:35PM 33.6531 -91.9794 59° Northeast 510 587 35,000  Level Memphis Center
03:36PM 33.7300 -91.8308 58° Northeast 510 587 35,000  Level Memphis Center
03:37PM 33.8006 -91.6819 60° Northeast 510 587 35,000  Level Memphis Center
03:38PM 33.8814 -91.5181 59° Northeast 510 587 35,000  Level Memphis Center
03:39PM 33.9578 -91.3689 58° Northeast 515 593 35,000  Level Memphis Center
03:40PM 34.0319 -91.2194 59° Northeast 515 593 35,000  Level Memphis Center
03:41PM 34.1061 -91.0669 60° Northeast 515 593 35,000  Level Memphis Center
03:42PM 34.1819 -90.9172 58° Northeast 515 593 35,000  Level Memphis Center
03:43PM 34.2556 -90.7667 59° Northeast 515 593 35,000  Level Memphis Center
03:44PM 34.3289 -90.6136 60° Northeast 515 593 35,000  Level Memphis Center
03:45PM 34.4044 -90.4603 59° Northeast 515 593 35,000  Level Memphis Center
03:46PM 34.4775 -90.3092 60° Northeast 520 598 35,000  Level Memphis Center
03:47PM 34.5503 -90.1553 60° Northeast 525 604 35,000  Level Memphis Center
03:48PM 34.6167 -90.0214 59° Northeast 525 604 35,000  Level Memphis Center
03:49PM 34.6892 -89.8644 61° Northeast 525 604 35,000  Level Memphis Center
03:50PM 34.7678 -89.6922 61° Northeast 525 604 35,000  Level Memphis Center
03:51PM 34.8461 -89.5322 59° Northeast 541 623 35,000  Level Memphis Center
03:52PM 34.9181 -89.3819 60° Northeast 536 617 35,000  Level Memphis Center
03:53PM 34.9897 -89.2267 61° Northeast 527 606 35,000  Level Memphis Center
03:54PM 35.0572 -89.0886 59° Northeast 527 606 35,000  Level Memphis Center
03:55PM 35.1283 -88.9328 61° Northeast 521 600 35,000  Level Memphis Center
03:56PM 35.1997 -88.7792 60° Northeast 526 605 35,000  Level Memphis Center
03:57PM 35.2706 -88.6200 61° Northeast 526 605 35,000  Level Memphis Center
03:58PM 35.3353 -88.4811 60° Northeast 526 605 35,000  Level Memphis Center
03:59PM 35.4219 -88.2933 60° Northeast 526 605 35,000  Level Memphis Center
04:00PM 35.4903 -88.1386 61° Northeast 526 605 35,000 -300 Level Memphis Center
04:01PM 35.5625 -87.9861 60° Northeast 519 597 34,500 -840 Descending Memphis Center
04:02PM 35.6344 -87.8256 61° Northeast 524 603 33,400 -780 Descending Memphis Center
04:03PM 35.7103 -87.6700 59° Northeast 529 609 33,000 -240 Descending Memphis Center
04:04PM 35.8031 -87.5236 52° Northeast 538 619 33,000  Level Memphis Center
04:05PM 35.8914 -87.3822 52° Northeast 533 613 33,000  Level Memphis Center
04:06PM 35.9694 -87.2511 54° Northeast 528 608 33,000  Level Memphis Center
04:07PM 36.0575 -87.1092 52° Northeast 520 598 33,000  Level Memphis Center
04:08PM 36.1456 -86.9642 53° Northeast 520 598 33,000  Level Memphis Center
04:09PM 36.2353 -86.8192 52° Northeast 520 598 33,000  Level Memphis Center
04:10PM 36.3347 -86.6550 53° Northeast 525 604 33,000 -300 Level Memphis Center
04:11PM 36.4222 -86.5142 52° Northeast 518 596 32,500 -720 Descending Memphis Center
04:12PM 36.5111 -86.3656 53° Northeast 526 605 31,600 -900 Descending Memphis Center
04:13PM 36.5903 -86.2350 53° Northeast 526 605 30,800 -960 Descending Memphis Center
04:15PM 36.8044 -85.8764 53° Northeast 521 600 28,400 -1,020 Descending Indianapolis Center
04:16PM 36.8897 -85.7314 54° Northeast 514 592 27,400 -1,020 Descending Indianapolis Center
04:17PM 36.9772 -85.5847 53° Northeast 519 597 26,400 -1,080 Descending Indianapolis Center
04:18PM 37.0789 -85.4194 52° Northeast 523 602 25,300 -1,260 Descending Indianapolis Center
04:19PM 37.1875 -85.3025 41° Northeast 514 592 23,900 -1,440 Descending Indianapolis Center
04:20PM 37.2925 -85.1917 40° Northeast 494 568 22,400 -1,500 Descending Indianapolis Center
04:21PM 37.3939 -85.0836 40° Northeast 479 551 20,900 -1,800 Descending Indianapolis Center
04:22PM 37.4914 -84.9817 40° Northeast 455 524 18,800 -2,640 Descending Indianapolis Center
04:23PM 37.5803 -84.8861 40° Northeast 421 484 15,500 -3,180 Descending Indianapolis Center
04:24PM 37.6642 -84.7956 41° Northeast 401 461 12,400 -2,520 Descending Indianapolis Center
04:25PM 37.7342 -84.7111 44° Northeast 351 404 10,400 -2,460 Descending Indianapolis Center
04:26PM 37.8047 -84.6247 44° Northeast 310 357 7,400 -2,220 Descending Indianapolis Center
04:27PM 37.8631 -84.5511 45° Northeast 300 345 5,900 -1,260 Descending Indianapolis Center
04:28PM 37.9211 -84.5039 33° Northeast 273 314 4,900 -1,020 Descending Indianapolis Center
04:29PM 37.9850 -84.4731 21° North 249 287 3,900 -900 Descending Indianapolis Center
04:31PM 38.0511 -84.4642 North 247 284 3,100 -780 Descending Indianapolis Center